• Join FlightAware (Why Join?)
  • Login
  • US Flag 
11:03PM EST


 

Airport Tracker/Info


-or-


 

Live Flight TrackerFlight Track Log ✈ N351CG ✈ 26-Jun-2013 ✈ KSRQ - KSTP

Flight Track Log - Related Links

Times and Time Zones

All times are in EDT time to prevent confusion due to time zone crossing. See the N351CG flight status page for this flight to view local times or setup timezone preferences in your user account.

Time Position Orientation Groundspeed Altitude Reporting Facility
EDT Latitude Longitude Course Direction KTS MPH feet Rate Location/Type
08:20AM 27.3833 -82.5500 130° Southeast 176 203 600  Level Tampa TRACON
08:22AM 27.3333 -82.4833 130° Southeast 237 273 3,000 1,920 Climbing Tampa TRACON
08:24AM 27.2231 -82.4686 173° South 164 189 7,800 2,100 Climbing Miami Center
08:25AM 27.2769 -82.5272 316° Northwest 116 133 9,900 1,800 Climbing Miami Center
08:26AM 27.3639 -82.5503 347° North 211 243 11,400 1,500 Climbing Miami Center
08:27AM 27.4522 -82.5828 342° North 270 311 12,900 1,500 Climbing Miami Center
08:28AM 27.5358 -82.6289 334° Northwest 317 365 14,400 1,500 Climbing Miami Center
08:30AM 27.7306 -82.7283 336° Northwest 344 396 17,700 1,440 Climbing Jacksonville Center
08:31AM 27.8244 -82.7589 344° North 344 396 19,000 1,140 Climbing Jacksonville Center
08:32AM 27.9203 -82.7869 345° North 349 402 20,000 1,140 Climbing Jacksonville Center
08:33AM 28.0225 -82.8150 346° North 355 409 21,300 960 Climbing Jacksonville Center
08:34AM 28.1250 -82.8408 347° North 360 414 22,000 900 Climbing Jacksonville Center
08:35AM 28.2272 -82.8736 344° North 371 427 23,200 1,260 Climbing Jacksonville Center
08:36AM 28.3314 -82.8972 349° North 377 434 24,600 1,260 Climbing Jacksonville Center
08:37AM 28.4294 -82.9281 345° North 370 426 25,800 1,260 Climbing Jacksonville Center
08:38AM 28.5297 -82.9539 347° North 370 426 27,200 1,380 Climbing Jacksonville Center
08:39AM 28.6278 -82.9825 346° North 365 420 28,600 1,440 Climbing Jacksonville Center
08:40AM 28.7300 -82.9967 353° North 365 420 30,100 1,200 Climbing Jacksonville Center
08:41AM 28.8322 -83.0017 358° North 365 420 31,100 960 Climbing Jacksonville Center
08:42AM 28.9367 -83.0089 357° North 365 420 32,100 960 Climbing Jacksonville Center
08:43AM 29.0453 -83.0136 358° North 370 426 33,100 900 Climbing Jacksonville Center
08:44AM 29.1494 -83.0208 357° North 375 432 33,900 600 Climbing Jacksonville Center
08:45AM 29.2603 -83.0283 357° North 385 443 34,400 720 Climbing Jacksonville Center
08:46AM 29.3686 -83.0497 350° North 391 450 35,400 900 Climbing Jacksonville Center
08:47AM 29.4689 -83.1000 336° Northwest 386 444 36,300 900 Climbing Jacksonville Center
08:48AM 29.5731 -83.1506 337° Northwest 392 451 37,300 900 Climbing Jacksonville Center
08:49AM 29.6733 -83.1961 338° Northwest 392 451 38,200 900 Climbing Jacksonville Center
08:50AM 29.7753 -83.2444 338° Northwest 392 451 39,200 840 Climbing Jacksonville Center
08:51AM 29.8506 -83.2853 335° Northwest 387 445 39,900 360 Climbing Jacksonville Center
08:52AM 29.9589 -83.3361 338° Northwest 382 440 40,000  Climbing Jacksonville Center
08:53AM 30.0608 -83.3844 338° Northwest 387 445 40,000  Level Jacksonville Center
08:54AM 30.1672 -83.4356 337° Northwest 398 458 40,000  Level Jacksonville Center
08:55AM 30.2714 -83.4867 337° Northwest 403 464 40,000  Level Jacksonville Center
08:56AM 30.3756 -83.5378 337° Northwest 403 464 40,000  Level Jacksonville Center
08:57AM 30.4817 -83.5892 337° Northwest 403 464 40,000  Level Jacksonville Center
08:58AM 30.5922 -83.6456 336° Northwest 398 458 40,000  Level Jacksonville Center
08:59AM 30.6983 -83.6994 336° Northwest 398 458 40,000  Level Jacksonville Center
09:00AM 30.8022 -83.7511 337° Northwest 398 458 40,000  Level Jacksonville Center
09:01AM 30.9064 -83.8031 337° Northwest 398 458 40,000  Level Jacksonville Center
09:03AM 31.0767 -83.8886 337° Northwest 404 465 40,000  Level Atlanta Center
09:04AM 31.1811 -83.9417 337° Northwest 404 465 40,000  Level Atlanta Center
09:05AM 31.2875 -83.9975 336° Northwest 404 465 40,000  Level Atlanta Center
09:06AM 31.3919 -84.0486 337° Northwest 404 465 40,000  Level Atlanta Center
09:07AM 31.4983 -84.1022 337° Northwest 404 465 40,000  Level Atlanta Center
09:08AM 31.6047 -84.1558 337° Northwest 404 465 40,000  Level Atlanta Center
09:09AM 31.7089 -84.2097 336° Northwest 404 465 40,000  Level Atlanta Center
09:10AM 31.8133 -84.2589 338° Northwest 404 465 40,000  Level Atlanta Center
09:11AM 31.9194 -84.3153 336° Northwest 404 465 40,000  Level Atlanta Center
09:12AM 32.0239 -84.3672 337° Northwest 404 465 40,000  Level Atlanta Center
09:13AM 32.1406 -84.4264 337° Northwest 404 465 40,000  Level Atlanta Center
09:14AM 32.2447 -84.4808 336° Northwest 404 465 40,000  Level Atlanta Center
09:15AM 32.3489 -84.5331 337° Northwest 404 465 40,000  Level Atlanta Center
09:16AM 32.4550 -84.5878 336° Northwest 404 465 40,000  Level Atlanta Center
09:17AM 32.5550 -84.6403 336° Northwest 399 459 40,000  Level Atlanta Center
09:18AM 32.6611 -84.6953 336° Northwest 399 459 40,000  Level Atlanta Center
09:19AM 32.7611 -84.7478 336° Northwest 399 459 40,000  Level Atlanta Center
09:20AM 32.8631 -84.8031 336° Northwest 399 459 40,000  Level Atlanta Center
09:21AM 32.9650 -84.8558 337° Northwest 399 459 40,000  Level Atlanta Center
09:22AM 33.0647 -84.9089 336° Northwest 399 459 40,000  Level Atlanta Center
09:23AM 33.1647 -84.9594 337° Northwest 394 453 40,000  Level Atlanta Center
09:24AM 33.2622 -85.0153 334° Northwest 399 459 40,000  Level Atlanta Center
09:25AM 33.3539 -85.0633 336° Northwest 399 459 40,000  Level Atlanta Center
09:26AM 33.4556 -85.1144 337° Northwest 393 452 40,000  Level Atlanta Center
09:27AM 33.5553 -85.1681 336° Northwest 393 452 40,000  Level Atlanta Center
09:28AM 33.6572 -85.2192 337° Northwest 394 453 40,000  Level Atlanta Center
09:29AM 33.7567 -85.2756 335° Northwest 394 453 40,000  Level Atlanta Center
09:30AM 33.8689 -85.3347 336° Northwest 399 459 40,000  Level Atlanta Center
09:31AM 33.9706 -85.3889 336° Northwest 399 459 40,000  Level Atlanta Center
09:32AM 34.0722 -85.4431 336° Northwest 394 453 40,000  Level Atlanta Center
09:33AM 34.1758 -85.4975 337° Northwest 399 459 40,000  Level Atlanta Center
09:34AM 34.2775 -85.5522 336° Northwest 394 453 40,000  Level Atlanta Center
09:35AM 34.3811 -85.6094 335° Northwest 401 461 40,000  Level Atlanta Center
09:36AM 34.4703 -85.6564 337° Northwest 394 453 40,000  Level Atlanta Center
09:37AM 34.5719 -85.7114 336° Northwest 399 459 40,000  Level Atlanta Center
09:38AM 34.6775 -85.7689 336° Northwest 399 459 40,000  Level Atlanta Center
09:42AM 35.0742 -85.9856 336° Northwest 413 475 40,000  Level Memphis Center
09:43AM 35.1806 -86.0458 335° Northwest 413 475 40,000  Level Memphis Center
09:44AM 35.2850 -86.1067 335° Northwest 408 470 40,000  Level Memphis Center
09:45AM 35.3933 -86.1675 335° Northwest 408 470 40,000  Level Memphis Center
09:46AM 35.5081 -86.2278 337° Northwest 408 470 40,000  Level Memphis Center
09:47AM 35.6142 -86.2889 335° Northwest 413 475 40,000  Level Memphis Center
09:48AM 35.7183 -86.3478 335° Northwest 413 475 40,000  Level Memphis Center
09:49AM 35.8244 -86.4067 336° Northwest 413 475 40,000  Level Memphis Center
09:50AM 35.9286 -86.4656 335° Northwest 413 475 40,000  Level Memphis Center
09:51AM 36.0219 -86.5178 336° Northwest 413 475 40,000  Level Memphis Center
09:52AM 36.1258 -86.5769 335° Northwest 413 475 40,000  Level Memphis Center
09:53AM 36.2297 -86.6339 336° Northwest 413 475 40,000  Level Memphis Center
09:54AM 36.3358 -86.6908 337° Northwest 405 466 40,000  Level Memphis Center
09:55AM 36.4503 -86.7581 335° Northwest 412 474 40,000  Level Memphis Center
09:56AM 36.5542 -86.8181 335° Northwest 417 480 40,000  Level Memphis Center
09:57AM 36.6558 -86.8781 335° Northwest 412 474 40,000  Level Memphis Center
09:58AM 36.7450 -86.9314 334° Northwest 412 474 40,000  Level Memphis Center
09:59AM 36.8486 -86.9917 335° Northwest 412 474 40,000  Level Memphis Center
10:00AM 36.9481 -87.0497 335° Northwest 407 468 40,000  Level Memphis Center
10:01AM 37.1344 -87.1550 336° Northwest 404 465 40,000  Level Indianapolis Center
10:02AM 37.2372 -87.2150 335° Northwest 403 464 40,000  Level Indianapolis Center
10:03AM 37.3383 -87.2761 334° Northwest 399 459 40,000 240 Level Indianapolis Center
10:04AM 37.4411 -87.3344 336° Northwest 401 461 40,500 660 Climbing Indianapolis Center
10:06AM 37.5406 -87.3961 334° Northwest 397 457 41,400 780 Climbing Indianapolis Center
10:07AM 37.6369 -87.4550 334° Northwest 385 443 42,200 720 Climbing Indianapolis Center
10:08AM 37.7317 -87.5103 335° Northwest 373 429 43,000 360 Climbing Indianapolis Center
10:09AM 37.8292 -87.5689 335° Northwest 377 434 43,000  Level Indianapolis Center
10:10AM 37.9272 -87.6275 335° Northwest 386 444 43,000  Level Indianapolis Center
10:11AM 38.0481 -87.6975 335° Northwest 394 453 43,000  Level Indianapolis Center
10:12AM 38.1550 -87.7300 347° North 391 450 43,000  Level Indianapolis Center
10:13AM 38.2619 -87.7625 347° North 391 450 43,000  Level Indianapolis Center
10:14AM 38.3683 -87.7950 347° North 389 448 43,000  Level Indianapolis Center
10:15AM 38.4764 -87.8217 349° North 390 449 43,000  Level Indianapolis Center
10:16AM 38.5836 -87.8481 349° North 389 448 43,000  Level Indianapolis Center
10:17AM 38.6911 -87.8728 350° North 390 449 43,000  Level Indianapolis Center
10:18AM 38.7986 -87.8981 350° North 391 450 43,000  Level Indianapolis Center
10:19AM 38.9286 -87.9300 349° North 393 452 43,000  Level Indianapolis Center
10:20AM 39.0372 -87.9569 349° North 395 455 43,000  Level Indianapolis Center
10:21AM 39.1458 -87.9803 351° North 395 455 43,000  Level Indianapolis Center
10:22AM 39.2578 -88.0031 351° North 403 464 43,000  Level Indianapolis Center
10:23AM 39.3683 -88.0325 348° North 396 456 43,000  Level Indianapolis Center
10:24AM 39.4778 -88.0614 348° North 399 459 43,000  Level Indianapolis Center
10:25AM 39.5889 -88.0828 352° North 401 461 43,000  Level Indianapolis Center
10:26AM 39.6983 -88.1128 348° North 404 465 43,000  Level Indianapolis Center
10:27AM 39.8214 -88.1711 340° North 397 457 43,000  Level Indianapolis Center
10:28AM 39.9100 -88.2400 329° Northwest 384 442 43,000  Level Chicago Center
10:30AM 40.0439 -88.4472 310° West 374 430 43,000  Level Indianapolis Center
10:31AM 40.0969 -88.5564 302° West 364 419 43,000  Level Indianapolis Center
10:32AM 40.1564 -88.6933 300° West 364 419 43,000  Level Kansas City Center
10:33AM 40.1986 -88.7836 302° West 364 419 43,000  Level Chicago Center
10:34AM 40.2531 -88.8978 302° West 368 423 43,000  Level Chicago Center
10:35AM 40.3039 -89.0183 299° West 376 433 43,000  Level Chicago Center
10:36AM 40.3667 -89.1597 300° West 374 430 43,000  Level Chicago Center
10:37AM 40.4247 -89.2747 304° West 376 433 43,000  Level Chicago Center
10:39AM 40.5419 -89.5067 304° West 381 438 43,000  Level Chicago Center
10:41AM 40.6153 -89.6242 309° West 379 436 43,000  Level Chicago Center
10:42AM 40.6842 -89.7322 310° West 384 442 43,000  Level Chicago Center
10:43AM 40.7558 -89.8414 311° West 391 450 43,000  Level Chicago Center
10:44AM 40.8403 -89.9308 321° Northwest 389 448 43,000  Level Chicago Center
10:45AM 40.9325 -90.0014 330° Northwest 383 441 43,000  Level Chicago Center
10:46AM 41.0289 -90.0736 331° Northwest 385 443 43,000  Level Chicago Center
10:47AM 41.1233 -90.1428 331° Northwest 387 445 43,000  Level Chicago Center
10:48AM 41.2183 -90.2144 330° Northwest 392 451 43,000  Level Chicago Center
10:49AM 41.3308 -90.3031 329° Northwest 392 451 43,000  Level Chicago Center
10:50AM 41.4033 -90.4133 311° West 396 456 43,000  Level Chicago Center
10:51AM 41.4706 -90.5256 309° West 390 449 43,000  Level Chicago Center
10:52AM 41.5431 -90.6519 307° West 398 458 43,000  Level Chicago Center
10:53AM 41.6106 -90.7681 308° West 399 459 43,000  Level Chicago Center
10:54AM 41.6789 -90.8808 309° West 396 456 43,000  Level Chicago Center
10:55AM 41.7464 -90.9958 308° West 395 455 43,000  Level Chicago Center
10:56AM 41.8139 -91.1083 309° West 392 451 43,000  Level Chicago Center
10:57AM 41.8806 -91.2236 308° West 394 453 43,000  Level Chicago Center
10:58AM 41.9614 -91.3608 308° West 392 451 43,000  Level Chicago Center
10:59AM 42.0281 -91.4758 308° West 392 451 43,000 -240 Level Chicago Center
11:00AM 42.0739 -91.6061 295° West 392 451 42,600 -780 Descending Chicago Center
11:01AM 42.1050 -91.7439 287° West 388 447 41,500 -1,320 Descending Chicago Center
11:02AM 42.1544 -91.8739 297° West 392 451 40,000 -1,740 Descending Chicago Center
11:03AM 42.2136 -91.9972 303° West 394 453 38,000 -2,100 Descending Chicago Center
11:04AM 42.2819 -92.1339 304° West 370 426 35,700 -2,100 Descending Chicago Center
11:05AM 42.3447 -92.2286 312° West 349 402 33,800 -1,560 Descending Chicago Center
11:06AM 42.4258 -92.2944 329° Northwest 340 391 32,600 -900 Descending Chicago Center
11:07AM 42.5142 -92.3642 330° Northwest 357 411 32,000 -300 Descending Chicago Center
11:08AM 42.5961 -92.4611 319° Northwest 383 441 32,000  Level Chicago Center
11:09AM 42.6661 -92.5706 311° West 387 445 32,000  Level Chicago Center
11:10AM 42.7367 -92.6825 311° West 388 447 32,000  Level Minneapolis Center
11:11AM 42.8039 -92.7894 311° West 380 437 32,000 -120 Level Minneapolis Center
11:12AM 42.8711 -92.8747 317° Northwest 351 404 31,800 -780 Descending Minneapolis Center
11:13AM 42.9692 -92.9456 332° Northwest 334 384 30,500 -1,380 Descending Minneapolis Center
11:14AM 43.0519 -93.0061 332° Northwest 338 389 29,000 -1,500 Descending Minneapolis Center
11:15AM 43.1383 -93.0675 333° Northwest 347 399 27,500 -1,500 Descending Minneapolis Center
11:16AM 43.2164 -93.1228 333° Northwest 329 379 26,000 -1,440 Descending Minneapolis Center
11:17AM 43.2875 -93.1575 340° North 285 328 24,600 -1,560 Descending Minneapolis Center
11:19AM 43.3831 -93.1886 347° North 294 338 22,800 -1,620 Descending Minneapolis Center
11:20AM 43.4778 -93.2181 347° North 340 391 21,300 -1,260 Descending Minneapolis Center
11:21AM 43.5656 -93.2458 347° North 355 409 20,000 -1,620 Descending Minneapolis Center
11:22AM 43.6947 -93.2875 347° North 342 394 17,700 -1,980 Descending Minneapolis Center
11:23AM 43.7939 -93.3197 347° North 362 417 15,900 -1,800 Descending Minneapolis Center
11:24AM 43.8928 -93.3522 347° North 365 420 14,000 -1,800 Descending Minneapolis Center
11:25AM 43.9919 -93.3850 347° North 366 421 12,300 -1,620 Descending Minneapolis Center
11:26AM 44.0875 -93.4153 347° North 354 407 10,700 -1,800 Descending Minneapolis Center
11:27AM 44.1881 -93.4486 347° North 312 359 8,700 -1,680 Descending Minneapolis Center
11:28AM 44.2689 -93.4617 353° North 296 341 7,200 -1,440 Descending Minneapolis Center
11:29AM 44.3506 -93.4586 North 292 336 5,700 -1,080 Descending Minneapolis Center
11:30AM 44.4261 -93.4703 354° North 274 315 5,000 -360 Descending Minneapolis Center
11:31AM 44.4983 -93.4822 353° North 264 304 5,000  Level Minneapolis Center
11:32AM 44.5781 -93.4967 353° North 285 328 5,000 -360 Level Minneapolis Center
11:33AM 44.6556 -93.5106 353° North 280 322 4,300 -540 Descending Minneapolis Center
11:34AM 44.7317 -93.5064 North 228 262 4,000 -180 Descending Minneapolis Center
11:35AM 44.7786 -93.4433 44° Northeast 230 265 4,000  Level Minneapolis Center
11:36AM 44.8256 -93.3731 47° Northeast 242 278 4,000  Level Minneapolis Center
11:37AM 44.8714 -93.3081 45° Northeast 232 267 4,000  Level Minneapolis Center
11:38AM 44.9172 -93.2453 44° Northeast 229 264 4,000  Level Minneapolis Center
11:39AM 44.9628 -93.1814 45° Northeast 230 265 4,000  Level Minneapolis Center
11:40AM 45.0081 -93.1183 45° Northeast 228 262 4,000  Level Minneapolis Center
11:41AM 45.0681 -93.0547 37° Northeast 231 266 4,000  Level Minneapolis Center
11:43AM 45.1322 -93.0525 North 231 266 4,000  Level Minneapolis Center
11:44AM 45.1864 -93.0667 350° North 205 236 4,000  Level Minneapolis Center
11:45AM 45.2208 -93.1169 314° West 196 226 4,000  Level Minneapolis Center
11:46AM 45.2075 -93.1878 255° West 186 214 4,000  Level Minneapolis Center
11:47AM 45.1658 -93.2489 226° Southwest 181 208 4,000  Level Minneapolis Center
11:48AM 45.1186 -93.2372 170° South 183 211 4,000 -60 Level Minneapolis Center
11:49AM 45.0758 -93.1950 145° Southeast 185 213 3,900 -600 Descending Minneapolis Center
11:50AM 45.0308 -93.1525 146° Southeast 195 224 2,800 -960 Descending Minneapolis Center
11:51AM 44.9928 -93.1161 146° Southeast 167 192 2,000 -780 Descending Minneapolis Center
11:52AM 44.9619 -93.0872 146° Southeast 134 154 1,300 -540 Descending Minneapolis Center
11:53AM 44.9297 -93.0575 147° Southeast 124 143 1,000 -300 Descending Minneapolis Center